createdAt,value
2019-04-20T00:01:37.260Z,83.70
2019-04-20T00:04:10.809Z,83.40
2019-04-20T00:06:43.175Z,83.40
2019-04-20T00:09:14.980Z,83.60
2019-04-20T00:11:49.385Z,83.40
2019-04-20T00:14:16.133Z,83.20
2019-04-20T00:16:40.301Z,82.80
2019-04-20T00:19:10.659Z,82.70
2019-04-20T00:21:52.256Z,81.60
2019-04-20T00:24:21.594Z,81.60
2019-04-20T00:27:22.064Z,81.60
2019-04-20T00:29:35.534Z,81.10
2019-04-20T00:32:00.561Z,81.00
2019-04-20T00:34:24.569Z,81.10
2019-04-20T00:36:49.842Z,80.90
2019-04-20T00:39:20.223Z,80.80
2019-04-20T00:41:56.075Z,80.90
2019-04-20T00:44:26.027Z,81.00
2019-04-20T00:47:04.503Z,81.50
2019-04-20T00:49:35.072Z,81.80
2019-04-20T00:52:18.775Z,81.70
2019-04-20T00:54:22.543Z,81.10
2019-04-20T00:56:53.176Z,81.30
2019-04-20T00:59:35.437Z,81.30
2019-04-20T01:02:12.687Z,81.20
2019-04-20T01:04:40.741Z,80.90
2019-04-20T01:07:20.574Z,81.10
2019-04-20T01:09:58.586Z,81.40
2019-04-20T01:12:31.302Z,81.30
2019-04-20T01:15:02.758Z,81.50
2019-04-20T01:17:28.946Z,80.80
2019-04-20T01:19:57.940Z,80.70
2019-04-20T01:22:28.706Z,80.80
2019-04-20T01:25:06.664Z,80.80
2019-04-20T01:27:39.994Z,80.80
2019-04-20T01:30:06.997Z,80.80
2019-04-20T01:32:46.967Z,80.70
2019-04-20T01:35:10.109Z,80.70
2019-04-20T01:37:52.229Z,81.20
2019-04-20T01:40:04.511Z,81.10
2019-04-20T01:42:34.077Z,81.20
2019-04-20T01:45:12.737Z,81.10
2019-04-20T01:47:41.592Z,81.10
2019-04-20T01:50:28.492Z,80.80
2019-04-20T01:53:08.618Z,80.90
2019-04-20T01:55:56.110Z,81.30
2019-04-20T01:58:35.114Z,81.50
2019-04-20T02:00:46.004Z,81.50
2019-04-20T02:03:38.451Z,81.00
2019-04-20T02:06:20.230Z,80.70
2019-04-20T02:08:53.134Z,80.60
2019-04-20T02:11:25.091Z,80.50
2019-04-20T02:13:55.018Z,80.70
2019-04-20T02:16:28.844Z,80.50
2019-04-20T02:19:08.004Z,80.30
2019-04-20T02:21:37.884Z,81.20
2019-04-20T02:23:58.918Z,80.80
2019-04-20T02:26:23.985Z,81.10
2019-04-20T02:29:20.241Z,81.40
2019-04-20T02:32:04.734Z,82.10
2019-04-20T02:34:33.554Z,82.60
2019-04-20T02:37:08.083Z,82.90
2019-04-20T02:42:13.999Z,85.50
2019-04-20T02:44:47.763Z,85.60
2019-04-20T02:47:14.054Z,86.40
2019-04-20T02:52:32.279Z,87.60
2019-04-20T02:57:14.478Z,88.50
2019-04-20T03:00:01.187Z,88.50
2019-04-20T03:01:59.467Z,89.00
2019-04-20T03:04:25.820Z,89.50
2019-04-20T03:06:58.344Z,90.00
2019-04-20T03:09:36.493Z,90.20
2019-04-20T03:12:10.624Z,90.10
2019-04-20T03:14:33.599Z,90.00
2019-04-20T03:17:09.887Z,90.20
2019-04-20T03:19:30.247Z,90.20
2019-04-20T03:22:09.745Z,90.20
2019-04-20T03:24:45.450Z,90.10
2019-04-20T03:27:07.972Z,90.00
2019-04-20T03:29:42.489Z,90.00
2019-04-20T03:32:49.886Z,89.60
2019-04-20T03:35:13.510Z,89.40
2019-04-20T03:37:52.521Z,89.40
2019-04-20T03:40:21.581Z,89.40
2019-04-20T03:42:37.192Z,89.10
2019-04-20T03:45:12.840Z,89.10
2019-04-20T03:47:52.954Z,88.90
2019-04-20T03:50:34.225Z,89.00
2019-04-20T03:53:09.887Z,88.70
2019-04-20T03:55:54.072Z,88.90
2019-04-20T03:58:28.513Z,88.70
2019-04-20T04:00:59.181Z,88.30
2019-04-20T04:03:45.882Z,88.00
2019-04-20T04:06:03.114Z,88.00
2019-04-20T04:08:27.718Z,87.50
2019-04-20T04:11:10.899Z,86.90
2019-04-20T04:13:24.967Z,86.20
2019-04-20T04:15:59.072Z,85.50
2019-04-20T04:18:31.837Z,85.10
2019-04-20T04:21:02.973Z,84.90
2019-04-20T04:23:44.462Z,84.30
2019-04-20T04:26:18.738Z,84.00
2019-04-20T04:28:43.351Z,83.50
2019-04-20T04:31:16.474Z,83.30
2019-04-20T04:36:15.594Z,83.50
2019-04-20T04:38:53.139Z,84.10
2019-04-20T04:41:23.969Z,83.00
2019-04-20T04:43:49.512Z,82.50
2019-04-20T04:46:03.880Z,82.50
2019-04-20T04:48:43.915Z,82.30
2019-04-20T04:51:19.607Z,82.10
2019-04-20T04:53:54.186Z,82.00
2019-04-20T04:56:17.097Z,81.90
2019-04-20T04:58:44.636Z,81.30
2019-04-20T05:01:18.448Z,81.10
2019-04-20T05:04:09.852Z,81.20
2019-04-20T05:06:31.322Z,81.60
2019-04-20T05:08:53.048Z,81.10
2019-04-20T05:11:19.481Z,81.30
2019-04-20T05:13:58.605Z,81.90
2019-04-20T05:16:40.965Z,80.90
2019-04-20T05:21:56.420Z,81.00
2019-04-20T05:24:26.965Z,80.90
2019-04-20T05:27:08.726Z,80.00
2019-04-20T05:29:23.636Z,79.10
2019-04-20T05:31:53.160Z,78.70
2019-04-20T05:34:46.300Z,78.60
2019-04-20T05:37:25.718Z,78.60
2019-04-20T05:39:47.425Z,78.10
2019-04-20T05:42:23.194Z,77.60
2019-04-20T05:44:55.638Z,77.20
2019-04-20T05:47:21.755Z,76.50
2019-04-20T05:49:51.239Z,75.80
2019-04-20T05:52:39.025Z,75.30
2019-04-20T05:55:02.741Z,73.50
2019-04-20T05:57:36.236Z,71.90
2019-04-20T06:00:27.747Z,71.20
2019-04-20T06:02:36.707Z,72.40
2019-04-20T06:05:27.831Z,72.90
2019-04-20T06:07:42.370Z,72.60
2019-04-20T06:10:16.787Z,73.50
2019-04-20T06:13:00.336Z,75.60
2019-04-20T06:15:39.271Z,76.30
2019-04-20T06:18:21.198Z,77.30
2019-04-20T06:20:52.556Z,76.70
2019-04-20T06:23:41.351Z,77.30
2019-04-20T06:26:35.493Z,77.80
2019-04-20T06:28:42.898Z,76.80
2019-04-20T06:31:28.199Z,77.10
2019-04-20T06:34:27.388Z,76.20
2019-04-20T06:36:49.721Z,76.60
2019-04-20T06:39:20.267Z,76.90
2019-04-20T06:46:58.754Z,74.60
2019-04-20T06:51:52.734Z,74.70
2019-04-20T06:54:18.310Z,74.30
2019-04-20T06:57:00.244Z,74.40
2019-04-20T06:59:35.539Z,74.90
2019-04-20T07:04:49.978Z,74.70
2019-04-20T07:12:02.833Z,71.40
2019-04-20T07:14:28.843Z,71.40
2019-04-20T07:17:32.998Z,72.40
2019-04-20T07:19:53.077Z,70.90
2019-04-20T07:22:37.492Z,71.40
2019-04-20T07:25:14.318Z,71.70
2019-04-20T07:27:41.570Z,71.90
2019-04-20T07:30:12.396Z,72.20
2019-04-20T07:32:49.840Z,72.00
2019-04-20T07:35:14.240Z,72.00
2019-04-20T07:38:10.031Z,70.90
2019-04-20T07:40:29.167Z,71.40
2019-04-20T07:42:52.406Z,71.60
2019-04-20T07:45:27.102Z,70.50
2019-04-20T07:48:02.717Z,70.40
2019-04-20T07:50:12.963Z,70.50
2019-04-20T07:52:43.266Z,70.00
2019-04-20T07:57:46.647Z,69.20
2019-04-20T08:00:26.337Z,66.30
2019-04-20T08:03:20.414Z,65.90
2019-04-20T08:05:39.475Z,65.20
2019-04-20T08:08:17.929Z,64.40
2019-04-20T08:11:02.644Z,63.70
2019-04-20T08:13:40.383Z,63.70
2019-04-20T08:16:06.643Z,64.30
2019-04-20T08:18:41.613Z,64.30
2019-04-20T08:21:06.340Z,64.20
2019-04-20T08:23:33.573Z,64.50
2019-04-20T08:25:56.963Z,63.70
2019-04-20T08:28:31.524Z,62.80
2019-04-20T08:31:09.275Z,63.40
2019-04-20T08:34:01.938Z,63.30
2019-04-20T08:36:30.127Z,64.60
2019-04-20T08:41:20.649Z,64.40
2019-04-20T08:43:58.966Z,62.80
2019-04-20T08:46:32.139Z,63.10
2019-04-20T08:49:08.339Z,63.30
2019-04-20T08:51:41.682Z,63.90
2019-04-20T08:54:03.626Z,63.30
2019-04-20T08:56:30.541Z,61.70
2019-04-20T08:58:48.260Z,63.20
2019-04-20T09:01:21.608Z,62.70
2019-04-20T09:04:03.664Z,62.60
2019-04-20T09:06:43.052Z,62.00
2019-04-20T09:09:33.258Z,63.60
2019-04-20T09:11:57.266Z,63.70
2019-04-20T09:14:23.778Z,63.60
2019-04-20T09:17:02.850Z,63.50
2019-04-20T09:19:41.712Z,61.60
2019-04-20T09:22:57.625Z,61.20
2019-04-20T09:25:48.465Z,62.20
2019-04-20T09:28:07.519Z,61.50
2019-04-20T09:30:37.498Z,61.70
2019-04-20T09:33:38.715Z,60.90
2019-04-20T09:36:02.296Z,61.60
2019-04-20T09:38:34.796Z,59.40
2019-04-20T09:41:09.115Z,61.30
2019-04-20T09:43:41.010Z,62.40
2019-04-20T09:46:13.819Z,61.00
2019-04-20T09:48:52.455Z,62.10
2019-04-20T09:51:30.696Z,62.60
2019-04-20T09:53:55.844Z,62.10
2019-04-20T09:56:29.642Z,63.60
2019-04-20T09:59:09.854Z,62.50
2019-04-20T10:01:29.222Z,63.40
2019-04-20T10:03:50.173Z,63.90
2019-04-20T10:06:25.829Z,64.60
2019-04-20T10:08:54.187Z,62.70
2019-04-20T10:11:21.133Z,63.50
2019-04-20T10:13:52.276Z,63.90
2019-04-20T10:16:21.824Z,62.90
2019-04-20T10:18:53.561Z,62.70
2019-04-20T10:21:23.517Z,62.40
2019-04-20T10:23:52.489Z,63.80
2019-04-20T10:26:22.745Z,64.60
2019-04-20T10:28:51.942Z,65.60
2019-04-20T10:31:22.277Z,65.80
2019-04-20T10:33:51.724Z,64.90
2019-04-20T10:36:39.330Z,66.80
2019-04-20T10:39:10.901Z,66.70
2019-04-20T10:41:46.952Z,66.40
2019-04-20T10:44:11.014Z,66.10
2019-04-20T10:46:41.266Z,67.00
2019-04-20T10:49:11.364Z,67.70
2019-04-20T10:51:41.813Z,66.90
2019-04-20T10:54:12.109Z,67.80
2019-04-20T10:56:41.496Z,68.20
2019-04-20T10:59:11.876Z,68.40
2019-04-20T11:01:41.063Z,67.10
2019-04-20T11:04:10.584Z,64.60
2019-04-20T11:06:40.556Z,63.10
2019-04-20T11:09:10.959Z,62.80
2019-04-20T11:11:40.672Z,62.70
2019-04-20T11:14:18.999Z,63.40
2019-04-20T11:16:40.327Z,63.70
2019-04-20T11:19:09.838Z,62.30
2019-04-20T11:21:40.678Z,61.50
2019-04-20T11:24:09.975Z,60.60
2019-04-20T11:26:41.449Z,60.80
2019-04-20T11:29:10.570Z,60.80
2019-04-20T11:31:46.396Z,59.20
2019-04-20T11:34:10.346Z,59.00
2019-04-20T11:36:43.361Z,58.30
2019-04-20T11:39:14.585Z,58.40
2019-04-20T11:41:45.709Z,58.50
2019-04-20T11:44:15.757Z,59.00
2019-04-20T11:46:45.366Z,58.20
2019-04-20T11:49:15.436Z,58.40
2019-04-20T11:51:45.585Z,58.10
2019-04-20T11:54:16.341Z,58.60
2019-04-20T11:56:47.284Z,58.70
2019-04-20T11:59:16.972Z,58.80
2019-04-20T12:01:51.969Z,59.30
2019-04-20T12:04:42.120Z,58.90
2019-04-20T12:07:06.709Z,58.60
2019-04-20T12:09:35.797Z,58.50
2019-04-20T12:12:17.423Z,59.10
2019-04-20T12:14:36.700Z,58.50
2019-04-20T12:17:06.154Z,59.00
2019-04-20T12:19:36.302Z,59.50
2019-04-20T12:22:07.544Z,58.40
2019-04-20T12:24:36.248Z,58.30
2019-04-20T12:27:06.967Z,58.60
2019-04-20T12:29:36.345Z,58.30
2019-04-20T12:32:07.143Z,58.50
2019-04-20T12:34:35.252Z,58.80
2019-04-20T12:37:05.027Z,59.00
2019-04-20T12:39:35.259Z,58.70
2019-04-20T12:42:09.015Z,59.70
2019-04-20T12:44:35.492Z,60.30
2019-04-20T12:47:05.759Z,60.40
2019-04-20T12:49:35.730Z,59.90
2019-04-20T12:52:06.510Z,60.10
2019-04-20T12:54:36.505Z,59.90
2019-04-20T12:57:06.668Z,59.40
2019-04-20T12:59:35.808Z,59.70
2019-04-20T13:02:05.247Z,59.10
2019-04-20T13:04:35.312Z,59.80
2019-04-20T13:07:05.830Z,59.30
2019-04-20T13:09:36.776Z,59.30
2019-04-20T13:12:11.616Z,59.80
2019-04-20T13:15:06.764Z,59.40
2019-04-20T13:17:36.060Z,59.50
2019-04-20T13:20:07.908Z,59.40
2019-04-20T13:22:37.426Z,59.40
2019-04-20T13:25:07.310Z,59.60
2019-04-20T13:27:40.898Z,59.40
2019-04-20T13:30:11.149Z,59.50
2019-04-20T13:32:41.532Z,59.80
2019-04-20T13:35:12.086Z,60.60
2019-04-20T13:37:42.305Z,60.30
2019-04-20T13:40:12.054Z,60.00
2019-04-20T13:42:41.497Z,60.50
2019-04-20T13:45:11.268Z,60.40
2019-04-20T13:47:41.489Z,60.70
2019-04-20T13:50:13.097Z,60.20
2019-04-20T13:52:42.678Z,60.40
2019-04-20T13:55:12.784Z,60.00
2019-04-20T13:57:47.293Z,60.60
2019-04-20T14:00:24.156Z,60.80
2019-04-20T14:03:02.804Z,59.90
2019-04-20T14:05:35.154Z,60.20
2019-04-20T14:08:07.559Z,60.30
2019-04-20T14:10:37.638Z,60.50
2019-04-20T14:13:12.165Z,61.00
2019-04-20T14:15:37.401Z,60.60
2019-04-20T14:18:06.932Z,60.20
2019-04-20T14:20:36.245Z,59.70
2019-04-20T14:23:05.487Z,59.70
2019-04-20T14:25:34.483Z,59.90
2019-04-20T14:28:04.916Z,59.60
2019-04-20T14:30:35.137Z,59.80
2019-04-20T14:33:05.280Z,59.80
2019-04-20T14:35:36.799Z,59.70
2019-04-20T14:38:06.207Z,59.90
2019-04-20T14:40:36.567Z,60.00
2019-04-20T14:43:06.808Z,60.00
2019-04-20T14:45:36.639Z,60.10
2019-04-20T14:48:07.847Z,59.80
2019-04-20T14:50:38.029Z,59.60
2019-04-20T14:53:07.439Z,59.70
2019-04-20T14:55:38.069Z,59.90
2019-04-20T14:58:08.903Z,60.50
2019-04-20T15:00:54.663Z,60.10
2019-04-20T15:03:28.484Z,59.80
2019-04-20T15:06:00.371Z,60.20
2019-04-20T15:08:30.493Z,60.00
2019-04-20T15:11:00.898Z,60.30
2019-04-20T15:13:30.802Z,59.70
2019-04-20T15:16:00.733Z,59.80
2019-04-20T15:18:39.654Z,59.60
2019-04-20T15:21:13.533Z,60.20
2019-04-20T15:23:43.749Z,61.20
2019-04-20T15:26:12.990Z,61.30
2019-04-20T15:28:42.299Z,61.30
2019-04-20T15:31:12.176Z,61.50
2019-04-20T15:33:41.502Z,61.20
2019-04-20T15:36:10.807Z,61.60
2019-04-20T15:38:41.334Z,61.50
2019-04-20T15:41:13.218Z,61.90
2019-04-20T15:43:41.525Z,61.40
2019-04-20T15:46:10.771Z,61.20
2019-04-20T15:48:39.908Z,60.90
2019-04-20T15:51:09.965Z,61.30
2019-04-20T15:53:41.685Z,62.10
2019-04-20T15:56:11.821Z,62.40
2019-04-20T15:58:40.960Z,63.40
2019-04-20T16:01:10.403Z,63.50
2019-04-20T16:03:45.575Z,64.10
2019-04-20T16:06:15.312Z,64.30
2019-04-20T16:08:46.155Z,64.50
2019-04-20T16:11:15.249Z,64.80
2019-04-20T16:13:49.421Z,65.30
2019-04-20T16:16:16.041Z,65.60
2019-04-20T16:18:46.625Z,65.90
2019-04-20T16:21:21.917Z,66.50
2019-04-20T16:23:50.868Z,66.90
2019-04-20T16:26:21.812Z,66.80
2019-04-20T16:28:51.011Z,66.80
2019-04-20T16:31:20.585Z,67.40
2019-04-20T16:33:50.580Z,67.30
2019-04-20T16:36:20.742Z,67.60
2019-04-20T16:38:51.000Z,68.00
2019-04-20T16:41:20.281Z,68.00
2019-04-20T16:43:49.976Z,68.10
2019-04-20T16:46:23.654Z,68.10
2019-04-20T16:48:52.629Z,68.50
2019-04-20T16:51:24.964Z,68.20
2019-04-20T16:53:56.021Z,68.80
2019-04-20T16:56:24.609Z,68.80
2019-04-20T16:59:00.306Z,69.40
2019-04-20T17:01:25.522Z,69.70
2019-04-20T17:04:06.537Z,69.70
2019-04-20T17:06:26.394Z,70.00
2019-04-20T17:08:56.550Z,70.20
2019-04-20T17:11:27.708Z,70.40
2019-04-20T17:13:59.851Z,70.40
2019-04-20T17:16:27.991Z,70.20
2019-04-20T17:18:57.379Z,70.60
2019-04-20T17:21:28.942Z,70.00
2019-04-20T17:23:59.394Z,69.90
2019-04-20T17:26:30.655Z,70.10
2019-04-20T17:29:08.124Z,69.30
2019-04-20T17:31:45.197Z,69.20
2019-04-20T17:34:29.858Z,69.30
2019-04-20T17:36:46.511Z,69.40
2019-04-20T17:39:27.801Z,69.40
2019-04-20T17:42:02.924Z,69.50
2019-04-20T17:44:31.440Z,69.60
2019-04-20T17:47:00.520Z,70.20
2019-04-20T17:49:32.732Z,69.90
2019-04-20T17:52:11.720Z,69.60
2019-04-20T17:54:22.173Z,69.50
2019-04-20T17:56:52.249Z,69.00
2019-04-20T17:59:22.285Z,68.70
2019-04-20T18:02:09.056Z,68.70
2019-04-20T18:04:57.401Z,68.90
2019-04-20T18:07:25.164Z,68.80
2019-04-20T18:09:50.346Z,68.70
2019-04-20T18:12:06.262Z,68.90
2019-04-20T18:14:45.966Z,69.00
2019-04-20T18:17:28.289Z,68.90
2019-04-20T18:19:52.056Z,69.10
2019-04-20T18:22:21.537Z,69.40
2019-04-20T18:25:15.594Z,69.70
2019-04-20T18:27:46.729Z,69.70
2019-04-20T18:30:08.142Z,70.00
2019-04-20T18:32:27.540Z,70.30
2019-04-20T18:35:04.409Z,71.40
2019-04-20T18:37:39.715Z,71.10
2019-04-20T18:40:11.319Z,71.30
2019-04-20T18:42:45.267Z,71.60
2019-04-20T18:45:31.802Z,71.80
2019-04-20T18:48:07.629Z,72.00
2019-04-20T18:50:27.742Z,71.90
2019-04-20T18:52:49.862Z,71.90
2019-04-20T18:55:27.468Z,71.90
2019-04-20T18:57:49.320Z,72.10
2019-04-20T19:00:26.983Z,72.30
2019-04-20T19:03:09.612Z,72.30
2019-04-20T19:05:35.766Z,72.20
2019-04-20T19:08:09.665Z,72.40
2019-04-20T19:10:47.125Z,72.60
2019-04-20T19:13:23.351Z,72.50
2019-04-20T19:16:03.765Z,72.70
2019-04-20T19:18:38.188Z,72.80
2019-04-20T19:20:56.992Z,73.20
2019-04-20T19:23:29.365Z,73.50
2019-04-20T19:26:05.471Z,74.10
2019-04-20T19:28:39.227Z,74.30
2019-04-20T19:31:12.568Z,74.70
2019-04-20T19:33:54.721Z,75.00
2019-04-20T19:36:15.216Z,74.70
2019-04-20T19:38:46.533Z,74.90
2019-04-20T19:41:17.555Z,75.00
2019-04-20T19:43:45.894Z,75.10
2019-04-20T19:46:42.756Z,75.40
2019-04-20T19:48:45.004Z,75.30
2019-04-20T19:51:29.906Z,75.60
2019-04-20T19:54:00.997Z,75.90
2019-04-20T19:56:28.148Z,76.40
2019-04-20T19:58:59.011Z,76.60
2019-04-20T20:01:13.622Z,76.90
2019-04-20T20:03:43.748Z,77.40
2019-04-20T20:06:24.385Z,77.80
2019-04-20T20:08:54.046Z,78.00
2019-04-20T20:11:23.428Z,78.20
2019-04-20T20:13:51.734Z,78.10
2019-04-20T20:16:28.907Z,78.20
2019-04-20T20:19:02.771Z,78.50
2019-04-20T20:21:39.920Z,78.80
2019-04-20T20:24:01.906Z,79.20
2019-04-20T20:26:36.753Z,79.50
2019-04-20T20:29:12.072Z,79.40
2019-04-20T20:31:48.607Z,79.40
2019-04-20T20:34:10.646Z,79.40
2019-04-20T20:36:43.739Z,79.30
2019-04-20T20:39:15.985Z,79.60
2019-04-20T20:41:53.325Z,80.00
2019-04-20T20:44:22.557Z,80.70
2019-04-20T20:47:04.816Z,81.20
2019-04-20T20:49:48.672Z,81.50
2019-04-20T20:52:17.314Z,81.00
2019-04-20T20:54:41.255Z,80.60
2019-04-20T20:57:05.677Z,79.70
2019-04-20T20:59:41.510Z,78.90
2019-04-20T21:02:06.872Z,77.40
2019-04-20T21:04:31.132Z,76.70
2019-04-20T21:07:00.619Z,76.30
2019-04-20T21:09:31.232Z,76.10
2019-04-20T21:12:06.530Z,75.50
2019-04-20T21:14:33.558Z,75.20
2019-04-20T21:17:10.259Z,74.70
2019-04-20T21:19:50.243Z,74.20
2019-04-20T21:22:11.530Z,73.30
2019-04-20T21:24:35.841Z,71.90
2019-04-20T21:27:08.903Z,71.50
2019-04-20T21:29:41.410Z,71.30
2019-04-20T21:32:12.093Z,71.70
2019-04-20T21:34:37.475Z,72.00
2019-04-20T21:37:11.853Z,72.40
2019-04-20T21:39:44.122Z,72.90
2019-04-20T21:42:12.535Z,75.40
2019-04-20T21:44:43.008Z,76.60
2019-04-20T21:47:09.180Z,74.90
2019-04-20T21:49:51.617Z,73.00
2019-04-20T21:52:23.018Z,71.70
2019-04-20T21:54:42.307Z,71.10
2019-04-20T21:57:14.301Z,71.00
2019-04-20T21:59:45.529Z,70.20
2019-04-20T22:02:20.789Z,70.50
2019-04-20T22:04:43.090Z,69.60
2019-04-20T22:07:14.426Z,69.50
2019-04-20T22:09:49.183Z,69.20
2019-04-20T22:12:15.973Z,69.30
2019-04-20T22:14:48.707Z,69.60
2019-04-20T22:17:22.441Z,70.10
2019-04-20T22:19:59.174Z,70.60
2019-04-20T22:22:36.701Z,69.70
2019-04-20T22:25:01.379Z,69.80
2019-04-20T22:27:23.683Z,71.50
2019-04-20T22:29:48.163Z,71.00
2019-04-20T22:32:20.416Z,72.70
2019-04-20T22:34:57.094Z,77.90
2019-04-20T22:37:24.507Z,73.90
2019-04-20T22:39:55.715Z,80.60
2019-04-20T22:42:21.659Z,81.70
2019-04-20T22:44:56.569Z,80.40
2019-04-20T22:47:25.470Z,88.50
2019-04-20T22:50:11.854Z,91.40
2019-04-20T22:52:39.033Z,93.70
2019-04-20T22:55:16.107Z,94.50
2019-04-20T22:57:48.509Z,92.90
2019-04-20T23:00:03.394Z,94.70
2019-04-20T23:02:26.922Z,93.80
2019-04-20T23:04:57.197Z,93.20
2019-04-20T23:07:26.531Z,91.70
2019-04-20T23:09:59.760Z,92.70
2019-04-20T23:12:29.265Z,92.40
2019-04-20T23:14:58.615Z,91.20
2019-04-20T23:17:35.905Z,91.00
2019-04-20T23:20:01.016Z,92.10
2019-04-20T23:22:36.893Z,91.20
2019-04-20T23:24:59.489Z,91.20
2019-04-20T23:27:31.571Z,90.50
2019-04-20T23:30:02.459Z,89.40
2019-04-20T23:32:30.214Z,88.80
2019-04-20T23:35:05.845Z,88.10
2019-04-20T23:38:02.931Z,86.70
2019-04-20T23:50:15.131Z,88.50
2019-04-20T23:52:57.986Z,88.00
2019-04-20T23:55:16.998Z,88.20
2019-04-20T23:57:46.025Z,89.40
